N57600 LCLK-OLBA
Flight info
| Callsign | N57600 |
|---|---|
| Flight time | 0h 28m |
| Altitude | 15000 |
| Route | EMILI R19 KUKLA |
| Aircraft | A20N/M-SDE2E3FGHIRWXY/LB1 |
Departure
| Time | 2026-04-27 01:40 |
|---|---|
| Airport | Larnaca International Airport (LCLK) |
Arrival
| Time | 2026-04-27 02:09 |
|---|---|
| Airport | Beirut Rafic Hariri International Airport (OLBA) |
| Time | Latitude | Longitude | Altitude | Speed | Heading |
|---|---|---|---|---|---|
| 2026-04-27 01:18 | 34.88533 | 33.63113 | 10 ft | 0 kts | 229° |
| 2026-04-27 01:33 | 34.88535 | 33.63116 | 10 ft | 1 kts | 229° |
| 2026-04-27 01:33 | 34.88540 | 33.63123 | 10 ft | 1 kts | 229° |
| 2026-04-27 01:33 | 34.88545 | 33.63130 | 10 ft | 1 kts | 229° |
| 2026-04-27 01:33 | 34.88551 | 33.63138 | 10 ft | 1 kts | 229° |
| 2026-04-27 01:34 | 34.88556 | 33.63145 | 11 ft | 1 kts | 229° |
| 2026-04-27 01:34 | 34.88561 | 33.63152 | 12 ft | 1 kts | 229° |
| 2026-04-27 01:34 | 34.88566 | 33.63160 | 12 ft | 1 kts | 233° |
| 2026-04-27 01:34 | 34.88571 | 33.63167 | 11 ft | 1 kts | 217° |
| 2026-04-27 01:35 | 34.88577 | 33.63173 | 11 ft | 1 kts | 201° |
| 2026-04-27 01:35 | 34.88582 | 33.63175 | 11 ft | 0 kts | 191° |
| 2026-04-27 01:35 | 34.88580 | 33.63176 | 11 ft | 0 kts | 178° |
| 2026-04-27 01:36 | 34.88579 | 33.63178 | 12 ft | 0 kts | 158° |
| 2026-04-27 01:36 | 34.88573 | 33.63186 | 11 ft | 3 kts | 137° |
| 2026-04-27 01:36 | 34.88546 | 33.63222 | 10 ft | 8 kts | 132° |
| 2026-04-27 01:36 | 34.88496 | 33.63287 | 10 ft | 12 kts | 134° |
| 2026-04-27 01:37 | 34.88489 | 33.63295 | 11 ft | 2 kts | 134° |
| 2026-04-27 01:37 | 34.88469 | 33.63319 | 10 ft | 6 kts | 136° |
| 2026-04-27 01:37 | 34.88443 | 33.63383 | 12 ft | 10 kts | 114° |
| 2026-04-27 01:37 | 34.88390 | 33.63461 | 11 ft | 14 kts | 114° |
| 2026-04-27 01:38 | 34.88358 | 33.63569 | 11 ft | 4 kts | 150° |
| 2026-04-27 01:38 | 34.88332 | 33.63557 | 11 ft | 6 kts | 216° |
| 2026-04-27 01:38 | 34.88317 | 33.63541 | 11 ft | 0 kts | 224° |
| 2026-04-27 01:39 | 34.88316 | 33.63540 | 11 ft | 1 kts | 224° |
| 2026-04-27 01:39 | 34.88313 | 33.63536 | 12 ft | 0 kts | 224° |
| 2026-04-27 01:39 | 34.88248 | 33.63461 | 10 ft | 44 kts | 224° |
| 2026-04-27 01:40 | 34.87849 | 33.62972 | 13 ft | 114 kts | 224° |
| 2026-04-27 01:40 | 34.87145 | 33.62152 | 32 ft | 162 kts | 224° |
| 2026-04-27 01:40 | 34.86484 | 33.61285 | 1065 ft | 113 kts | 231° |
| 2026-04-27 01:40 | 34.85957 | 33.60466 | 1268 ft | 148 kts | 231° |
| 2026-04-27 01:41 | 34.85214 | 33.59509 | 1690 ft | 164 kts | 224° |
| 2026-04-27 01:41 | 34.84315 | 33.58500 | 2064 ft | 186 kts | 223° |
| 2026-04-27 01:41 | 34.83299 | 33.57349 | 2415 ft | 211 kts | 223° |
| 2026-04-27 01:41 | 34.82181 | 33.56058 | 2955 ft | 233 kts | 218° |
| 2026-04-27 01:42 | 34.80659 | 33.55201 | 3530 ft | 255 kts | 187° |
| 2026-04-27 01:42 | 34.78868 | 33.55386 | 4335 ft | 265 kts | 157° |
| 2026-04-27 01:42 | 34.77347 | 33.56601 | 5514 ft | 263 kts | 133° |
| 2026-04-27 01:42 | 34.76128 | 33.58261 | 6578 ft | 269 kts | 128° |
| 2026-04-27 01:43 | 34.74892 | 33.60007 | 7746 ft | 269 kts | 130° |
| 2026-04-27 01:43 | 34.73604 | 33.61662 | 8912 ft | 271 kts | 133° |
| 2026-04-27 01:43 | 34.72262 | 33.63238 | 10029 ft | 273 kts | 135° |
| 2026-04-27 01:43 | 34.70807 | 33.64861 | 10754 ft | 291 kts | 136° |
| 2026-04-27 01:44 | 34.69254 | 33.66553 | 11180 ft | 315 kts | 136° |
| 2026-04-27 01:44 | 34.67568 | 33.68372 | 11773 ft | 331 kts | 136° |
| 2026-04-27 01:44 | 34.65832 | 33.70243 | 12689 ft | 336 kts | 137° |
| 2026-04-27 01:44 | 34.64121 | 33.72198 | 13599 ft | 341 kts | 129° |
| 2026-04-27 01:45 | 34.62898 | 33.74671 | 14199 ft | 347 kts | 111° |
| 2026-04-27 01:45 | 34.62418 | 33.77512 | 14313 ft | 346 kts | 91° |
| 2026-04-27 01:45 | 34.62566 | 33.80438 | 14422 ft | 347 kts | 86° |
| 2026-04-27 01:45 | 34.62768 | 33.83362 | 14526 ft | 347 kts | 86° |
| 2026-04-27 01:46 | 34.62960 | 33.86284 | 14634 ft | 348 kts | 86° |
| 2026-04-27 01:46 | 34.63133 | 33.89224 | 14741 ft | 349 kts | 86° |
| 2026-04-27 01:46 | 34.63290 | 33.92158 | 14847 ft | 349 kts | 87° |
| 2026-04-27 01:46 | 34.63441 | 33.95106 | 14941 ft | 350 kts | 87° |
| 2026-04-27 01:47 | 34.63590 | 33.98076 | 14949 ft | 354 kts | 87° |
| 2026-04-27 01:47 | 34.63729 | 34.01055 | 14949 ft | 352 kts | 90° |
| 2026-04-27 01:47 | 34.63473 | 34.03977 | 14954 ft | 349 kts | 105° |
| 2026-04-27 01:47 | 34.62588 | 34.06729 | 14952 ft | 350 kts | 119° |
| 2026-04-27 01:48 | 34.61235 | 34.09198 | 14950 ft | 351 kts | 124° |
| 2026-04-27 01:48 | 34.59848 | 34.11629 | 14950 ft | 350 kts | 124° |
| 2026-04-27 01:48 | 34.58466 | 34.14069 | 14951 ft | 351 kts | 124° |
| 2026-04-27 01:48 | 34.57087 | 34.16506 | 14950 ft | 351 kts | 124° |
| 2026-04-27 01:49 | 34.55706 | 34.18947 | 14955 ft | 351 kts | 124° |
| 2026-04-27 01:49 | 34.54324 | 34.21391 | 14952 ft | 351 kts | 124° |
| 2026-04-27 01:49 | 34.52945 | 34.23830 | 14954 ft | 352 kts | 124° |
| 2026-04-27 01:49 | 34.51557 | 34.26284 | 14955 ft | 351 kts | 124° |
| 2026-04-27 01:50 | 34.50178 | 34.28722 | 14955 ft | 351 kts | 124° |
| 2026-04-27 01:50 | 34.48798 | 34.31167 | 14955 ft | 351 kts | 124° |
| 2026-04-27 01:50 | 34.47413 | 34.33617 | 14955 ft | 352 kts | 124° |
| 2026-04-27 01:50 | 34.46051 | 34.36022 | 14954 ft | 351 kts | 124° |
| 2026-04-27 01:51 | 34.44647 | 34.38498 | 14957 ft | 351 kts | 124° |
| 2026-04-27 01:51 | 34.43277 | 34.40934 | 14866 ft | 349 kts | 124° |
| 2026-04-27 01:51 | 34.41936 | 34.43340 | 14523 ft | 347 kts | 124° |
| 2026-04-27 01:51 | 34.40577 | 34.45782 | 14013 ft | 345 kts | 123° |
| 2026-04-27 01:52 | 34.39254 | 34.48156 | 13433 ft | 343 kts | 124° |
| 2026-04-27 01:52 | 34.37927 | 34.50538 | 12867 ft | 340 kts | 124° |
| 2026-04-27 01:52 | 34.36609 | 34.52896 | 12300 ft | 337 kts | 124° |
| 2026-04-27 01:52 | 34.35302 | 34.55233 | 11752 ft | 333 kts | 124° |
| 2026-04-27 01:53 | 34.34006 | 34.57546 | 11223 ft | 330 kts | 125° |
| 2026-04-27 01:53 | 34.32720 | 34.59838 | 10697 ft | 327 kts | 125° |
| 2026-04-27 01:53 | 34.31459 | 34.62086 | 10326 ft | 319 kts | 125° |
| 2026-04-27 01:53 | 34.30241 | 34.64256 | 10224 ft | 303 kts | 125° |
| 2026-04-27 01:54 | 34.29091 | 34.66305 | 10121 ft | 288 kts | 125° |
| 2026-04-27 01:54 | 34.27993 | 34.68259 | 10025 ft | 275 kts | 125° |
| 2026-04-27 01:54 | 34.26913 | 34.70175 | 9972 ft | 278 kts | 125° |
| 2026-04-27 01:54 | 34.25825 | 34.72105 | 9970 ft | 277 kts | 125° |
| 2026-04-27 01:55 | 34.24770 | 34.74061 | 9964 ft | 278 kts | 121° |
| 2026-04-27 01:55 | 34.23969 | 34.76206 | 9972 ft | 283 kts | 111° |
| 2026-04-27 01:55 | 34.23394 | 34.78476 | 9924 ft | 281 kts | 109° |
| 2026-04-27 01:55 | 34.22821 | 34.80730 | 9644 ft | 280 kts | 109° |
| 2026-04-27 01:56 | 34.21667 | 34.85165 | 8822 ft | 277 kts | 110° |
| 2026-04-27 01:56 | 34.21081 | 34.87401 | 8395 ft | 276 kts | 110° |
| 2026-04-27 01:56 | 34.20499 | 34.89619 | 7978 ft | 275 kts | 110° |
| 2026-04-27 01:57 | 34.19924 | 34.91814 | 7572 ft | 273 kts | 110° |
| 2026-04-27 01:57 | 34.19359 | 34.93973 | 7170 ft | 272 kts | 110° |
| 2026-04-27 01:57 | 34.18789 | 34.96145 | 6777 ft | 271 kts | 110° |
| 2026-04-27 01:57 | 34.18220 | 34.98314 | 6376 ft | 270 kts | 110° |
| 2026-04-27 01:58 | 34.17654 | 35.00467 | 5982 ft | 268 kts | 110° |
| 2026-04-27 01:58 | 34.17087 | 35.02615 | 5532 ft | 269 kts | 110° |
| 2026-04-27 01:58 | 34.16520 | 35.04769 | 5109 ft | 269 kts | 110° |
| 2026-04-27 01:58 | 34.15951 | 35.06931 | 4635 ft | 272 kts | 110° |
| 2026-04-27 01:59 | 34.15379 | 35.09100 | 4266 ft | 269 kts | 110° |
| 2026-04-27 01:59 | 34.14820 | 35.11227 | 4121 ft | 265 kts | 110° |
| 2026-04-27 01:59 | 34.14251 | 35.13383 | 4030 ft | 270 kts | 110° |
| 2026-04-27 01:59 | 34.13685 | 35.15524 | 3975 ft | 266 kts | 110° |
| 2026-04-27 02:00 | 34.13119 | 35.17662 | 3974 ft | 268 kts | 110° |
| 2026-04-27 02:00 | 34.12554 | 35.19797 | 3974 ft | 268 kts | 110° |
| 2026-04-27 02:00 | 34.11987 | 35.21944 | 3975 ft | 268 kts | 110° |
| 2026-04-27 02:00 | 34.11421 | 35.24087 | 3975 ft | 267 kts | 110° |
| 2026-04-27 02:01 | 34.10855 | 35.26222 | 3970 ft | 267 kts | 109° |
| 2026-04-27 02:01 | 34.10290 | 35.28353 | 3962 ft | 266 kts | 109° |
| 2026-04-27 02:01 | 34.09729 | 35.30470 | 3791 ft | 264 kts | 109° |
| 2026-04-27 02:01 | 34.09170 | 35.32577 | 3476 ft | 263 kts | 110° |
| 2026-04-27 02:02 | 34.08613 | 35.34674 | 3150 ft | 260 kts | 109° |
| 2026-04-27 02:02 | 34.08066 | 35.36728 | 3058 ft | 261 kts | 109° |
| 2026-04-27 02:02 | 34.07507 | 35.38826 | 2953 ft | 262 kts | 110° |
| 2026-04-27 02:02 | 34.06753 | 35.40768 | 2841 ft | 251 kts | 131° |
| 2026-04-27 02:03 | 34.05418 | 35.41977 | 2745 ft | 236 kts | 161° |
| 2026-04-27 02:03 | 34.03864 | 35.42433 | 2666 ft | 224 kts | 169° |
| 2026-04-27 02:03 | 34.02372 | 35.42810 | 2579 ft | 213 kts | 168° |
| 2026-04-27 02:03 | 34.00969 | 35.43172 | 2487 ft | 201 kts | 168° |
| 2026-04-27 02:04 | 33.99645 | 35.43526 | 2434 ft | 186 kts | 168° |
| 2026-04-27 02:04 | 33.98440 | 35.43857 | 2176 ft | 171 kts | 167° |
| 2026-04-27 02:04 | 33.97270 | 35.44187 | 2098 ft | 180 kts | 167° |
| 2026-04-27 02:04 | 33.96091 | 35.44520 | 1987 ft | 164 kts | 167° |
| 2026-04-27 02:05 | 33.95061 | 35.44805 | 1972 ft | 138 kts | 167° |
| 2026-04-27 02:05 | 33.94163 | 35.45057 | 1976 ft | 129 kts | 168° |
| 2026-04-27 02:05 | 33.93301 | 35.45297 | 1989 ft | 127 kts | 167° |
| 2026-04-27 02:05 | 33.92444 | 35.45546 | 1988 ft | 126 kts | 167° |
| 2026-04-27 02:06 | 33.91569 | 35.45784 | 1861 ft | 132 kts | 169° |
| 2026-04-27 02:06 | 33.90590 | 35.45976 | 1305 ft | 144 kts | 169° |
| 2026-04-27 02:06 | 33.89692 | 35.46303 | 1168 ft | 127 kts | 165° |
| 2026-04-27 02:06 | 33.88821 | 35.46543 | 1022 ft | 128 kts | 167° |
| 2026-04-27 02:07 | 33.87963 | 35.46791 | 849 ft | 126 kts | 166° |
| 2026-04-27 02:07 | 33.87100 | 35.47012 | 653 ft | 127 kts | 168° |
| 2026-04-27 02:07 | 33.86258 | 35.47252 | 523 ft | 126 kts | 165° |
| 2026-04-27 02:07 | 33.85396 | 35.47473 | 388 ft | 124 kts | 164° |
| 2026-04-27 02:08 | 33.84562 | 35.47738 | 234 ft | 124 kts | 161° |
| 2026-04-27 02:08 | 33.83726 | 35.47978 | 34 ft | 124 kts | 167° |
| 2026-04-27 02:08 | 33.82961 | 35.48181 | 33 ft | 103 kts | 166° |
| 2026-04-27 02:08 | 33.82507 | 35.48339 | 38 ft | 56 kts | 147° |
| 2026-04-27 02:09 | 33.82385 | 35.48462 | 39 ft | 0 kts | 137° |
| 2026-04-27 02:11 | 33.82379 | 35.48468 | 39 ft | 4 kts | 137° |
| 2026-04-27 02:11 | 33.82362 | 35.48487 | 40 ft | 0 kts | 137° |
| 2026-04-27 02:12 | 33.82352 | 35.48498 | 39 ft | 4 kts | 137° |
| 2026-04-27 02:12 | 33.82342 | 35.48510 | 41 ft | 2 kts | 136° |
| 2026-04-27 02:12 | 33.82338 | 35.48514 | 41 ft | 0 kts | 137° |
| 2026-04-27 02:14 | 33.82328 | 35.48525 | 40 ft | 0 kts | 137° |